createdAt,value
2022-09-14T00:01:24.135Z,53151.26
2022-09-14T00:02:07.929Z,52953.86
2022-09-14T00:03:11.403Z,52918.79
2022-09-14T00:04:14.746Z,52941.84
2022-09-14T00:05:17.828Z,53074.11
2022-09-14T00:06:21.934Z,53151.26
2022-09-14T00:07:24.807Z,53074.11
2022-09-14T00:08:27.982Z,52955.86
2022-09-14T00:09:30.856Z,53051.06
2022-09-14T00:10:33.930Z,53002.96
2022-09-14T00:11:36.602Z,52930.81
2022-09-14T00:12:39.685Z,52793.54
2022-09-14T00:13:43.298Z,52753.46
2022-09-14T00:14:46.256Z,52722.40
2022-09-14T00:15:49.128Z,52707.37
2022-09-14T00:16:52.349Z,52682.32
2022-09-14T00:17:55.187Z,52844.64
2022-09-14T00:18:58.061Z,53190.34
2022-09-14T00:20:01.445Z,53224.41
2022-09-14T00:21:04.442Z,53156.27
2022-09-14T00:22:07.719Z,52894.74
2022-09-14T00:23:10.794Z,52778.51
2022-09-14T00:24:13.761Z,52767.49
2022-09-14T00:25:16.747Z,52961.87
2022-09-14T00:26:32.116Z,53033.02
2022-09-14T00:27:34.776Z,53086.13
2022-09-14T00:28:37.659Z,52988.93
2022-09-14T00:29:40.843Z,53024.00
2022-09-14T00:31:56.972Z,53024.00
2022-09-14T00:33:00.006Z,53093.14
2022-09-14T00:34:03.096Z,53177.32
2022-09-14T00:35:06.367Z,53248.46
2022-09-14T00:36:09.446Z,53312.60
2022-09-14T00:37:12.609Z,53274.52
2022-09-14T00:38:20.331Z,53216.40
2022-09-14T00:39:24.938Z,53182.33
2022-09-14T00:40:27.904Z,53135.23
2022-09-14T00:41:31.513Z,53141.24
2022-09-14T00:42:34.896Z,53138.23
2022-09-14T00:43:37.964Z,53137.23
2022-09-14T00:44:41.159Z,53141.24
2022-09-14T00:45:44.600Z,53223.41
2022-09-14T00:46:47.727Z,53161.29
2022-09-14T00:47:50.908Z,53160.28
2022-09-14T00:48:53.779Z,53058.07
2022-09-14T00:49:56.764Z,53088.13
2022-09-14T00:50:59.736Z,53120.20
2022-09-14T00:52:03.039Z,53125.21
2022-09-14T00:53:05.992Z,53139.24
2022-09-14T00:54:08.868Z,53208.38
2022-09-14T00:55:12.044Z,53218.40
2022-09-14T00:56:15.243Z,53260.49
2022-09-14T00:58:34.827Z,53261.50
2022-09-14T00:59:37.705Z,53304.58
2022-09-14T01:00:40.603Z,53382.75
2022-09-14T01:01:46.657Z,53401.79
2022-09-14T01:02:49.377Z,53313.60
2022-09-14T01:03:52.247Z,53262.50
2022-09-14T01:04:55.027Z,53328.64
2022-09-14T01:05:57.793Z,53309.59
2022-09-14T01:07:00.564Z,53416.82
2022-09-14T01:08:03.644Z,53344.67
2022-09-14T01:09:06.529Z,53371.73
2022-09-14T01:10:09.491Z,53384.75
2022-09-14T01:11:12.910Z,53413.82
2022-09-14T01:12:15.958Z,53459.91
2022-09-14T01:13:18.937Z,53395.78
2022-09-14T01:14:22.221Z,53342.66
2022-09-14T01:15:25.523Z,53300.57
2022-09-14T01:16:28.345Z,53311.60
2022-09-14T01:17:31.052Z,53404.80
2022-09-14T01:18:34.034Z,53370.73
2022-09-14T01:19:37.002Z,53347.68
2022-09-14T01:21:56.392Z,53354.69
2022-09-14T01:23:00.711Z,53381.75
2022-09-14T01:24:03.652Z,53319.62
2022-09-14T01:25:06.954Z,53284.54
2022-09-14T01:26:10.029Z,53324.63
2022-09-14T01:27:12.996Z,53449.89
2022-09-14T01:28:16.079Z,53501.00
2022-09-14T01:29:19.164Z,53521.05
2022-09-14T01:30:22.342Z,53601.22
2022-09-14T01:31:25.978Z,53633.29
2022-09-14T01:32:29.215Z,53592.20
2022-09-14T01:33:32.092Z,53550.11
2022-09-14T01:34:35.990Z,53524.05
2022-09-14T01:35:39.476Z,53516.04
2022-09-14T01:36:42.461Z,53506.02
2022-09-14T01:37:47.375Z,53438.87
2022-09-14T01:38:50.973Z,53437.87
2022-09-14T01:39:54.735Z,53391.77
2022-09-14T01:40:57.850Z,53296.57
2022-09-14T01:42:01.230Z,53272.52
2022-09-14T01:43:05.030Z,53310.60
2022-09-14T01:44:08.103Z,53339.66
2022-09-14T01:45:11.101Z,53165.29
2022-09-14T01:46:14.329Z,53194.35
2022-09-14T01:47:17.040Z,53243.46
2022-09-14T01:48:19.813Z,53208.38
2022-09-14T01:50:33.240Z,53141.24
2022-09-14T01:51:36.004Z,53075.11
2022-09-14T01:52:39.028Z,53168.30
2022-09-14T01:53:41.968Z,53210.39
2022-09-14T01:54:45.045Z,53131.22
2022-09-14T01:55:47.820Z,52977.91
2022-09-14T01:56:50.697Z,52986.93
2022-09-14T01:57:53.364Z,53040.04
2022-09-14T01:58:56.232Z,53116.19
2022-09-14T01:59:59.004Z,53216.40
2022-09-14T02:01:02.068Z,53326.63
2022-09-14T02:03:21.460Z,53251.47
2022-09-14T02:04:25.265Z,53330.64
2022-09-14T02:05:28.026Z,53296.57
2022-09-14T02:06:31.210Z,53300.57
2022-09-14T02:07:33.984Z,53395.78
2022-09-14T02:08:36.674Z,53450.89
2022-09-14T02:09:39.621Z,53464.93
2022-09-14T02:10:42.411Z,53468.93
2022-09-14T02:11:45.390Z,53448.89
2022-09-14T02:12:48.252Z,53506.02
2022-09-14T02:13:50.924Z,53564.14
2022-09-14T02:14:53.803Z,53546.10
2022-09-14T02:15:56.721Z,53487.98
2022-09-14T02:16:59.542Z,53511.03
2022-09-14T02:18:02.320Z,53553.12
2022-09-14T02:19:05.501Z,53588.19
2022-09-14T02:20:09.645Z,53609.24
2022-09-14T02:21:12.887Z,53613.25
2022-09-14T02:23:31.950Z,53616.25
2022-09-14T02:24:34.721Z,53579.18
2022-09-14T02:25:37.700Z,53615.25
2022-09-14T02:26:40.672Z,53593.21
2022-09-14T02:27:43.544Z,53587.19
2022-09-14T02:28:46.831Z,53560.13
2022-09-14T02:29:49.706Z,53605.23
2022-09-14T02:30:52.683Z,53517.04
2022-09-14T02:31:55.953Z,53546.10
2022-09-14T02:32:59.485Z,53554.12
2022-09-14T02:34:02.755Z,53558.13
2022-09-14T02:35:05.723Z,53539.09
2022-09-14T02:36:14.211Z,53535.08
2022-09-14T02:37:17.005Z,53511.03
2022-09-14T02:38:20.196Z,53539.09
2022-09-14T02:39:22.877Z,53541.09
2022-09-14T02:40:33.756Z,53541.09
2022-09-14T02:41:38.440Z,53585.19
2022-09-14T02:42:41.728Z,53610.24
2022-09-14T02:43:44.593Z,53621.27
2022-09-14T02:44:47.259Z,53595.21
2022-09-14T02:45:50.128Z,53631.29
2022-09-14T02:46:53.311Z,53655.34
2022-09-14T02:47:56.418Z,53636.30
2022-09-14T02:48:59.685Z,53606.23
2022-09-14T02:50:02.966Z,53617.26
2022-09-14T02:51:06.146Z,53626.28
2022-09-14T02:52:09.429Z,53637.30
2022-09-14T02:53:12.934Z,53580.18
2022-09-14T02:54:16.215Z,53593.21
2022-09-14T02:55:19.688Z,53583.18
2022-09-14T02:56:22.669Z,53575.17
2022-09-14T02:57:26.057Z,53580.18
2022-09-14T02:58:29.033Z,53612.25
2022-09-14T02:59:31.708Z,53620.27
2022-09-14T03:00:34.676Z,53586.19
2022-09-14T03:01:37.721Z,53530.07
2022-09-14T03:02:40.527Z,53592.20
2022-09-14T03:03:44.030Z,53553.12
2022-09-14T03:04:47.093Z,53492.99
2022-09-14T03:05:50.295Z,53364.71
2022-09-14T03:06:56.369Z,53291.56
2022-09-14T03:07:59.512Z,53220.41
2022-09-14T03:09:02.689Z,53198.36
2022-09-14T03:10:05.866Z,53184.33
2022-09-14T03:11:09.273Z,53182.33
2022-09-14T03:12:12.243Z,53207.38
2022-09-14T03:14:28.731Z,53199.36
2022-09-14T03:15:31.818Z,53220.41
2022-09-14T03:16:34.939Z,53219.41
2022-09-14T03:17:37.663Z,53245.46
2022-09-14T03:18:40.849Z,53201.37
2022-09-14T03:19:43.923Z,53247.46
2022-09-14T03:20:46.904Z,53240.45
2022-09-14T03:21:49.984Z,53125.21
2022-09-14T03:22:53.169Z,53118.20
2022-09-14T03:23:56.266Z,53140.24
2022-09-14T03:24:59.328Z,53138.23
2022-09-14T03:27:10.199Z,53150.26
2022-09-14T03:30:36.938Z,53132.22
2022-09-14T03:31:39.789Z,53116.19
2022-09-14T03:32:42.995Z,53035.02
2022-09-14T03:33:45.666Z,53091.14
2022-09-14T03:34:49.373Z,53163.29
2022-09-14T03:35:53.681Z,53134.23
2022-09-14T03:36:56.750Z,53166.29
2022-09-14T03:38:00.036Z,53177.32
2022-09-14T03:39:02.824Z,53190.34
2022-09-14T03:40:05.854Z,53209.38
2022-09-14T03:41:08.554Z,53187.34
2022-09-14T03:42:11.446Z,53236.44
2022-09-14T03:43:14.736Z,53210.39
2022-09-14T03:44:17.808Z,53228.42
2022-09-14T03:45:20.773Z,53214.39
2022-09-14T03:46:23.833Z,53238.45
2022-09-14T03:47:26.626Z,53230.43
2022-09-14T03:48:30.725Z,53250.47
2022-09-14T03:49:33.506Z,53146.25
2022-09-14T03:50:36.276Z,53203.37
2022-09-14T03:51:39.265Z,53232.43
2022-09-14T03:53:55.656Z,53173.31
2022-09-14T03:54:58.533Z,53185.34
2022-09-14T03:56:01.411Z,53256.48
2022-09-14T03:57:04.179Z,53287.55
2022-09-14T03:58:07.251Z,53377.74
2022-09-14T03:59:10.231Z,53374.73
2022-09-14T04:00:13.314Z,53260.49
2022-09-14T04:01:16.314Z,53290.55
2022-09-14T04:02:18.965Z,53268.51
2022-09-14T04:03:21.926Z,53302.58
2022-09-14T04:04:24.815Z,53299.57
2022-09-14T04:05:27.682Z,53293.56
2022-09-14T04:06:30.449Z,53287.55
2022-09-14T04:07:35.271Z,53366.72
2022-09-14T04:08:38.147Z,53325.63
2022-09-14T04:09:40.810Z,53360.70
2022-09-14T04:10:43.621Z,53327.63
2022-09-14T04:13:02.553Z,53248.46
2022-09-14T04:14:05.622Z,53258.49
2022-09-14T04:15:11.985Z,53265.50
2022-09-14T04:16:15.026Z,53275.52
2022-09-14T04:17:18.140Z,53234.44
2022-09-14T04:18:21.222Z,53233.43
2022-09-14T04:19:24.104Z,53243.46
2022-09-14T04:20:27.381Z,53256.48
2022-09-14T04:21:31.689Z,53237.44
2022-09-14T04:22:34.668Z,53237.44
2022-09-14T04:23:57.008Z,53232.43
2022-09-14T04:24:42.288Z,53252.48
2022-09-14T04:25:45.339Z,53229.43
2022-09-14T04:26:49.345Z,53177.32
2022-09-14T04:28:16.658Z,53206.38
2022-09-14T04:28:57.230Z,53266.50
2022-09-14T04:30:00.524Z,53292.56
2022-09-14T04:31:03.778Z,53315.61
2022-09-14T04:32:06.889Z,53310.60
2022-09-14T04:33:10.605Z,53271.52
2022-09-14T04:34:15.636Z,53240.45
2022-09-14T04:35:21.656Z,53232.43
2022-09-14T04:36:24.740Z,53261.50
2022-09-14T04:37:27.610Z,53139.24
2022-09-14T04:38:30.484Z,53174.31
2022-09-14T04:39:33.354Z,53228.42
2022-09-14T04:40:36.346Z,53226.42
2022-09-14T04:41:39.310Z,53164.29
2022-09-14T04:42:42.212Z,53170.30
2022-09-14T04:43:44.955Z,53186.34
2022-09-14T04:44:48.344Z,53255.48
2022-09-14T04:45:51.829Z,53260.49
2022-09-14T04:46:54.813Z,53205.37
2022-09-14T04:47:58.091Z,53195.36
2022-09-14T04:49:01.184Z,53191.35
2022-09-14T04:50:04.461Z,53224.41
2022-09-14T04:51:07.751Z,53181.32
2022-09-14T04:52:10.821Z,53181.32
2022-09-14T04:53:14.314Z,53212.39
2022-09-14T04:54:17.931Z,53178.32
2022-09-14T04:55:21.183Z,53200.37
2022-09-14T04:56:24.289Z,53187.34
2022-09-14T04:57:27.142Z,53207.38
2022-09-14T04:58:30.233Z,53157.28
2022-09-14T04:59:33.196Z,53138.23
2022-09-14T05:00:36.177Z,53170.30
2022-09-14T05:01:40.559Z,53174.31
2022-09-14T05:02:43.583Z,53193.35
2022-09-14T05:04:59.345Z,53203.37
2022-09-14T05:07:13.509Z,53152.27
2022-09-14T05:08:16.993Z,53173.31
2022-09-14T05:09:20.258Z,53220.41
2022-09-14T05:10:29.185Z,53235.44
2022-09-14T05:13:58.497Z,53245.46
2022-09-14T05:15:02.916Z,53321.62
2022-09-14T05:16:12.099Z,53286.55
2022-09-14T05:18:41.774Z,53210.39
2022-09-14T05:19:49.632Z,53283.54
2022-09-14T05:20:52.608Z,53269.51
2022-09-14T05:21:55.691Z,53218.40
2022-09-14T05:23:01.759Z,53187.34
2022-09-14T05:24:05.118Z,53271.52
2022-09-14T05:25:10.427Z,53320.62
2022-09-14T05:26:14.695Z,53284.54
2022-09-14T05:27:17.633Z,53318.61
2022-09-14T05:28:20.936Z,53315.61
2022-09-14T05:29:39.399Z,53309.59
2022-09-14T05:30:48.954Z,53274.52
2022-09-14T05:31:56.887Z,53322.62
2022-09-14T05:32:59.662Z,53314.61
2022-09-14T05:34:02.939Z,53299.57
2022-09-14T05:35:06.320Z,53358.70
2022-09-14T05:36:14.232Z,53308.59
2022-09-14T05:37:22.291Z,53262.50
2022-09-14T05:39:47.963Z,53284.54
2022-09-14T05:40:58.595Z,53296.57
2022-09-14T05:42:03.671Z,53285.54
2022-09-14T05:43:07.213Z,53287.55
2022-09-14T05:44:22.613Z,53320.62
2022-09-14T05:49:27.729Z,53399.79
2022-09-14T05:50:35.860Z,53431.86
2022-09-14T05:51:38.813Z,53392.77
2022-09-14T05:52:41.785Z,53396.78
2022-09-14T05:53:55.922Z,53392.77
2022-09-14T05:55:03.846Z,53379.74
2022-09-14T05:56:09.835Z,53383.75
2022-09-14T05:57:13.972Z,53378.74
2022-09-14T05:58:19.610Z,53319.62
2022-09-14T05:59:22.574Z,53342.66
2022-09-14T06:00:26.473Z,53358.70
2022-09-14T06:01:35.542Z,53388.76
2022-09-14T06:02:50.256Z,53370.73
2022-09-14T06:03:53.948Z,53416.82
2022-09-14T06:05:00.297Z,53430.85
2022-09-14T06:06:07.670Z,53455.91
2022-09-14T06:07:20.541Z,53459.91
2022-09-14T06:08:25.000Z,53422.84
2022-09-14T06:09:34.688Z,53410.81
2022-09-14T06:10:43.261Z,53345.67
2022-09-14T06:11:54.610Z,53448.89
2022-09-14T06:13:07.852Z,53444.88
2022-09-14T06:14:18.452Z,53506.02
2022-09-14T06:15:22.194Z,53547.11
2022-09-14T06:17:56.327Z,53485.97
2022-09-14T06:21:51.361Z,53498.00
2022-09-14T06:22:54.698Z,53510.02
2022-09-14T06:24:09.961Z,53436.87
2022-09-14T06:25:18.147Z,53486.97
2022-09-14T06:26:20.563Z,53481.96
2022-09-14T06:27:29.185Z,53529.06
2022-09-14T06:28:40.258Z,53540.09
2022-09-14T06:29:45.923Z,53579.18
2022-09-14T06:34:36.615Z,53747.55
2022-09-14T06:38:05.450Z,53704.45
2022-09-14T06:39:13.520Z,53706.45
2022-09-14T06:40:16.431Z,53716.48
2022-09-14T06:41:20.247Z,53735.52
2022-09-14T06:43:47.238Z,53822.71
2022-09-14T06:45:01.427Z,53865.81
2022-09-14T06:46:11.154Z,53881.85
2022-09-14T06:47:32.250Z,53878.84
2022-09-14T06:50:05.290Z,54018.16
2022-09-14T06:52:29.451Z,54082.30
2022-09-14T06:53:33.042Z,54083.30
2022-09-14T06:54:44.086Z,54043.21
2022-09-14T06:55:59.017Z,54070.28
2022-09-14T06:57:03.603Z,54072.28
2022-09-14T06:58:06.334Z,54116.38
2022-09-14T07:00:27.269Z,54188.55
2022-09-14T07:04:03.401Z,54217.62
2022-09-14T07:05:09.635Z,54171.51
2022-09-14T07:07:38.503Z,54300.81
2022-09-14T07:08:54.765Z,54305.82
2022-09-14T07:10:03.353Z,54231.65
2022-09-14T07:12:19.704Z,54237.66
2022-09-14T07:13:23.924Z,54300.81
2022-09-14T07:14:32.434Z,54324.87
2022-09-14T07:15:54.011Z,54390.03
2022-09-14T07:17:00.201Z,54429.12
2022-09-14T07:18:12.126Z,54518.34
2022-09-14T07:20:36.603Z,54852.16
2022-09-14T07:27:58.515Z,55700.37
2022-09-14T07:29:07.166Z,55796.63
2022-09-14T07:34:05.838Z,55865.82
2022-09-14T07:36:36.075Z,55915.96
2022-09-14T07:39:00.694Z,56061.37
2022-09-14T07:40:08.317Z,56121.54
2022-09-14T07:46:04.871Z,56376.26
2022-09-14T07:48:24.618Z,56445.46
2022-09-14T07:53:19.546Z,56598.91
2022-09-14T07:57:14.321Z,56850.66
2022-09-14T07:59:46.434Z,57041.24
2022-09-14T08:00:54.364Z,57080.36
2022-09-14T08:01:57.041Z,57188.69
2022-09-14T08:07:03.198Z,57429.44
2022-09-14T08:08:08.419Z,57520.73
2022-09-14T08:09:11.082Z,57585.94
2022-09-14T08:11:35.430Z,57688.27
2022-09-14T08:14:02.448Z,57815.68
2022-09-14T08:15:09.915Z,57889.92
2022-09-14T08:16:15.869Z,57975.20
2022-09-14T08:17:18.459Z,58004.29
2022-09-14T08:18:23.059Z,58045.43
2022-09-14T08:19:27.042Z,58015.33
2022-09-14T08:21:47.660Z,57955.13
2022-09-14T08:22:50.704Z,57869.85
2022-09-14T08:25:21.424Z,57820.69
2022-09-14T08:26:27.371Z,57842.77
2022-09-14T08:27:32.715Z,57849.79
2022-09-14T08:28:39.087Z,57895.94
2022-09-14T08:31:06.020Z,57855.80
2022-09-14T08:34:40.931Z,57581.92
2022-09-14T08:36:04.179Z,57564.87
2022-09-14T08:36:52.923Z,57584.93
2022-09-14T08:37:56.794Z,57582.93
2022-09-14T08:39:00.713Z,57537.78
2022-09-14T08:40:06.518Z,57489.63
2022-09-14T08:41:12.624Z,57462.54
2022-09-14T08:42:16.506Z,57448.50
2022-09-14T08:43:21.203Z,57360.22
2022-09-14T08:44:30.144Z,57308.06
2022-09-14T08:46:57.475Z,57232.83
2022-09-14T08:48:03.385Z,57160.60
2022-09-14T08:49:11.641Z,57120.48
2022-09-14T08:50:14.598Z,57082.36
2022-09-14T08:51:17.272Z,56986.07
2022-09-14T08:53:49.146Z,56979.05
2022-09-14T08:54:53.533Z,57016.16
2022-09-14T08:55:58.656Z,57073.34
2022-09-14T08:58:11.999Z,57077.35
2022-09-14T08:59:14.416Z,57016.16
2022-09-14T09:00:18.531Z,56950.96
2022-09-14T09:01:30.201Z,56871.72
2022-09-14T09:06:17.474Z,56772.43
2022-09-14T09:07:26.152Z,56736.32
2022-09-14T09:08:31.161Z,56720.27
2022-09-14T09:09:33.916Z,56678.14
2022-09-14T09:10:39.863Z,56737.32
2022-09-14T09:11:44.056Z,56737.32
2022-09-14T09:12:52.402Z,56740.33
2022-09-14T09:13:55.526Z,56696.20
2022-09-14T09:15:07.078Z,56730.30
2022-09-14T09:16:09.559Z,56739.33
2022-09-14T09:17:12.058Z,56749.36
2022-09-14T09:18:14.739Z,56716.26
2022-09-14T09:19:17.361Z,56743.34
2022-09-14T09:20:20.251Z,56771.42
2022-09-14T09:21:33.803Z,56743.34
2022-09-14T09:22:36.783Z,56768.41
2022-09-14T09:23:39.081Z,56815.55
2022-09-14T09:24:43.125Z,56877.74
2022-09-14T09:25:46.134Z,56958.99
2022-09-14T09:26:48.500Z,57028.20
2022-09-14T09:27:51.335Z,57069.32
2022-09-14T09:28:53.979Z,57088.38
2022-09-14T09:29:56.708Z,57164.61
2022-09-14T09:32:22.560Z,57217.78
2022-09-14T09:33:25.488Z,57183.68
2022-09-14T09:34:29.036Z,57217.78
2022-09-14T09:35:31.393Z,57182.67
2022-09-14T09:36:33.902Z,57231.82
2022-09-14T09:37:36.562Z,57252.89
2022-09-14T09:38:38.988Z,57255.90
2022-09-14T09:39:41.399Z,57247.87
2022-09-14T09:40:43.843Z,57304.05
2022-09-14T09:41:56.676Z,57285.99
2022-09-14T09:42:59.353Z,57256.90
2022-09-14T09:44:01.843Z,57208.75
2022-09-14T09:45:04.620Z,57158.60
2022-09-14T09:46:07.481Z,57170.63
2022-09-14T09:47:10.513Z,57197.71
2022-09-14T09:48:14.444Z,57172.64
2022-09-14T09:49:18.534Z,57252.89
2022-09-14T09:51:41.362Z,57289.00
2022-09-14T09:52:43.816Z,57333.14
2022-09-14T09:53:46.059Z,57321.10
2022-09-14T09:54:48.430Z,57302.04
2022-09-14T09:55:50.801Z,57368.25
2022-09-14T09:57:01.733Z,57397.34
2022-09-14T09:58:04.338Z,57377.28
2022-09-14T09:59:06.871Z,57415.39
2022-09-14T10:00:09.389Z,57426.43
2022-09-14T10:01:13.766Z,57406.37
2022-09-14T10:02:16.461Z,57377.28
2022-09-14T10:03:19.044Z,57305.05
2022-09-14T10:04:26.969Z,57204.74
2022-09-14T10:05:29.346Z,57162.61
2022-09-14T10:06:31.789Z,57122.48
2022-09-14T10:07:34.259Z,57098.41
2022-09-14T10:08:36.806Z,57109.45
2022-09-14T10:09:39.156Z,57182.67
2022-09-14T10:10:41.438Z,57256.90
2022-09-14T10:11:48.549Z,57277.96
2022-09-14T10:12:51.039Z,57315.08
2022-09-14T10:13:58.249Z,57403.36
2022-09-14T10:15:00.777Z,57419.41
2022-09-14T10:16:03.364Z,57395.33
2022-09-14T10:17:11.493Z,57353.20
2022-09-14T10:18:20.117Z,57313.07
2022-09-14T10:19:22.654Z,57246.87
2022-09-14T10:20:25.138Z,57239.85
2022-09-14T10:21:31.082Z,57170.63
2022-09-14T10:22:33.580Z,57144.55
2022-09-14T10:23:35.999Z,57124.49
2022-09-14T10:24:43.228Z,57133.52
2022-09-14T10:25:45.445Z,57143.55
2022-09-14T10:26:47.771Z,57138.54
2022-09-14T10:27:49.990Z,57164.61
2022-09-14T10:28:56.255Z,57092.39
2022-09-14T10:29:58.754Z,57050.27
2022-09-14T10:31:01.236Z,57042.24
2022-09-14T10:32:03.755Z,57040.23
2022-09-14T10:33:06.124Z,57056.28
2022-09-14T10:34:17.298Z,57025.19
2022-09-14T10:35:18.861Z,56979.05
2022-09-14T10:36:21.487Z,56988.07
2022-09-14T10:37:24.047Z,56959.99
2022-09-14T10:38:27.866Z,56992.09
2022-09-14T10:39:30.096Z,57027.20
2022-09-14T10:40:32.964Z,57007.13
2022-09-14T10:41:35.187Z,56974.03
2022-09-14T10:42:38.136Z,56991.09
2022-09-14T10:43:40.866Z,56990.08
2022-09-14T10:44:43.163Z,56982.05
2022-09-14T10:45:45.596Z,57013.15
2022-09-14T10:46:48.122Z,56964.00
2022-09-14T10:47:50.963Z,57008.14
2022-09-14T10:48:54.069Z,57035.22
2022-09-14T10:49:56.596Z,57078.35
2022-09-14T10:50:59.190Z,57084.37
2022-09-14T10:52:01.824Z,57052.27
2022-09-14T10:53:04.432Z,57002.12
2022-09-14T10:54:06.678Z,56972.02
2022-09-14T10:55:09.481Z,56927.89
2022-09-14T10:56:12.936Z,56900.81
2022-09-14T10:57:15.231Z,56899.81
2022-09-14T10:58:21.210Z,56788.47
2022-09-14T10:59:21.576Z,56744.34
2022-09-14T11:00:25.700Z,56748.35
2022-09-14T11:01:37.234Z,56777.44
2022-09-14T11:02:41.906Z,56750.36
2022-09-14T11:03:50.201Z,56779.45
2022-09-14T11:04:52.464Z,56796.50
2022-09-14T11:05:54.755Z,56834.61
2022-09-14T11:07:06.242Z,56841.63
2022-09-14T11:08:08.671Z,56841.63
2022-09-14T11:09:16.325Z,56934.91
2022-09-14T11:10:18.788Z,56959.99
2022-09-14T11:11:21.422Z,57012.15
2022-09-14T11:12:23.789Z,57076.34
2022-09-14T11:13:27.875Z,57150.57
2022-09-14T11:14:40.749Z,57188.69
2022-09-14T11:15:43.209Z,57234.83
2022-09-14T11:16:45.421Z,57252.89
2022-09-14T11:17:51.255Z,57258.91
2022-09-14T11:18:55.772Z,57301.04
2022-09-14T11:20:07.692Z,57335.14
2022-09-14T11:21:21.062Z,56605.93
2022-09-14T11:22:24.033Z,57367.25
2022-09-14T11:23:26.913Z,57377.28
2022-09-14T11:24:32.345Z,57383.30
2022-09-14T11:25:35.430Z,57417.40
2022-09-14T11:26:43.087Z,57425.43
2022-09-14T11:27:51.888Z,57443.48
2022-09-14T11:28:55.118Z,57489.63
2022-09-14T11:29:58.388Z,57440.48
2022-09-14T11:31:01.867Z,57401.35
2022-09-14T11:32:20.459Z,57402.36
2022-09-14T11:33:16.044Z,57409.38
2022-09-14T11:34:19.005Z,57417.40
2022-09-14T11:35:22.182Z,57442.48
2022-09-14T11:36:27.208Z,57415.39
2022-09-14T11:37:32.972Z,57387.31
2022-09-14T11:38:36.085Z,57355.21
2022-09-14T11:39:43.876Z,57368.25
2022-09-14T11:40:46.895Z,57373.27
2022-09-14T11:41:49.987Z,57346.18
2022-09-14T11:42:57.883Z,57354.20
2022-09-14T11:44:00.794Z,57411.38
2022-09-14T11:45:05.270Z,57387.31
2022-09-14T11:46:08.240Z,57437.46
2022-09-14T11:47:11.011Z,57443.48
2022-09-14T11:49:34.581Z,57443.48
2022-09-14T11:50:40.934Z,57409.38
2022-09-14T11:51:44.544Z,57378.28
2022-09-14T11:52:47.505Z,57398.34
2022-09-14T11:53:51.018Z,57453.52
2022-09-14T11:54:54.093Z,57429.44
2022-09-14T11:56:12.069Z,57470.57
2022-09-14T11:57:15.083Z,57464.55
2022-09-14T11:58:18.734Z,57514.71
2022-09-14T11:59:21.751Z,57530.76
2022-09-14T12:00:24.838Z,57543.80
2022-09-14T12:01:39.450Z,57594.96
2022-09-14T12:02:42.691Z,57567.88
2022-09-14T12:03:48.550Z,57602.99
2022-09-14T12:04:50.262Z,57646.13
2022-09-14T12:05:53.356Z,57675.22
2022-09-14T12:07:01.440Z,57722.37
2022-09-14T12:08:05.949Z,57719.36
2022-09-14T12:09:12.247Z,57804.64
2022-09-14T12:10:15.273Z,57832.73
2022-09-14T12:11:18.671Z,57820.69
2022-09-14T12:12:21.773Z,57865.84
2022-09-14T12:13:24.625Z,57904.97
2022-09-14T12:14:27.298Z,57953.13
2022-09-14T12:15:30.421Z,57983.22
2022-09-14T12:16:34.730Z,57995.27
2022-09-14T12:17:40.217Z,58047.43
2022-09-14T12:18:43.691Z,58057.47
2022-09-14T12:19:46.988Z,58081.55
2022-09-14T12:20:59.810Z,58115.66
2022-09-14T12:22:02.870Z,58135.73
2022-09-14T12:23:09.037Z,58179.87
2022-09-14T12:24:12.315Z,58177.87
2022-09-14T12:25:15.399Z,58216.00
2022-09-14T12:26:18.769Z,58235.06
2022-09-14T12:27:21.855Z,58226.03
2022-09-14T12:28:25.026Z,58255.13
2022-09-14T12:29:28.070Z,58286.23
2022-09-14T12:30:31.518Z,58300.28
2022-09-14T12:31:34.832Z,58256.13
2022-09-14T12:32:38.181Z,58298.27
2022-09-14T12:33:41.189Z,58330.38
2022-09-14T12:34:47.001Z,58328.37
2022-09-14T12:35:50.076Z,58344.43
2022-09-14T12:36:53.084Z,58377.54
2022-09-14T12:37:56.533Z,58378.54
2022-09-14T12:39:00.855Z,58402.62
2022-09-14T12:40:03.996Z,58429.72
2022-09-14T12:41:07.100Z,58420.69
2022-09-14T12:42:10.015Z,58437.75
2022-09-14T12:43:15.249Z,58416.67
2022-09-14T12:44:18.502Z,58434.73
2022-09-14T12:45:21.899Z,58434.73
2022-09-14T12:46:25.277Z,58443.77
2022-09-14T12:47:28.162Z,58478.89
2022-09-14T12:48:31.328Z,58486.91
2022-09-14T12:49:34.515Z,58492.93
2022-09-14T12:50:37.909Z,58493.94
2022-09-14T12:51:41.224Z,58533.07
2022-09-14T12:52:53.990Z,58514.00
2022-09-14T12:53:57.168Z,58482.90
2022-09-14T12:55:00.634Z,58553.14
2022-09-14T12:56:05.271Z,58514.00
2022-09-14T12:57:08.766Z,58538.09
2022-09-14T12:58:12.780Z,58559.16
2022-09-14T12:59:20.097Z,58564.18
2022-09-14T13:00:23.017Z,58563.18
2022-09-14T13:01:26.055Z,58562.17
2022-09-14T13:02:29.938Z,58573.21
2022-09-14T13:03:33.909Z,58615.35
2022-09-14T13:04:36.864Z,58618.36
2022-09-14T13:05:39.869Z,58629.40
2022-09-14T13:06:42.714Z,58653.48
2022-09-14T13:07:45.908Z,58652.48
2022-09-14T13:08:48.794Z,58664.52
2022-09-14T13:09:51.670Z,58712.69
2022-09-14T13:10:55.143Z,58722.73
2022-09-14T13:11:57.916Z,58746.81
2022-09-14T13:13:00.900Z,58689.61
2022-09-14T13:14:03.980Z,58687.60
2022-09-14T13:15:06.631Z,58739.79
2022-09-14T13:16:11.045Z,58749.82
2022-09-14T13:17:13.847Z,58791.96
2022-09-14T13:18:16.624Z,58776.91
2022-09-14T13:19:19.381Z,58799.99
2022-09-14T13:20:22.143Z,58822.07
2022-09-14T13:21:24.933Z,58843.14
2022-09-14T13:22:27.991Z,58827.09
2022-09-14T13:23:31.198Z,58885.29
2022-09-14T13:24:33.852Z,58887.30
2022-09-14T13:25:37.234Z,58950.52
2022-09-14T13:26:40.310Z,58956.55
2022-09-14T13:27:43.188Z,58996.69
2022-09-14T13:28:45.868Z,59035.82
2022-09-14T13:29:48.718Z,59025.79
2022-09-14T13:30:52.040Z,59047.87
2022-09-14T13:31:56.175Z,59070.95
2022-09-14T13:32:59.300Z,59115.11
2022-09-14T13:34:02.166Z,59140.20
2022-09-14T13:35:05.463Z,59146.22
2022-09-14T13:36:08.538Z,59134.18
2022-09-14T13:37:11.527Z,59165.29
2022-09-14T13:38:14.815Z,59205.43
2022-09-14T13:39:17.980Z,59246.58
2022-09-14T13:40:21.423Z,59299.77
2022-09-14T13:41:24.562Z,59277.69
2022-09-14T13:42:27.438Z,59371.03
2022-09-14T13:43:30.812Z,59344.94
2022-09-14T13:44:33.368Z,59433.26
2022-09-14T13:45:36.328Z,59456.34
2022-09-14T13:46:39.210Z,59427.23
2022-09-14T13:47:42.006Z,59469.39
2022-09-14T13:48:45.071Z,59510.54
2022-09-14T13:49:48.161Z,59546.67
2022-09-14T13:50:51.018Z,59606.89
2022-09-14T13:51:54.328Z,59580.80
2022-09-14T13:53:02.448Z,59616.93
2022-09-14T13:54:01.811Z,59622.95
2022-09-14T13:55:04.882Z,59605.89
2022-09-14T13:56:07.661Z,59637.01
2022-09-14T13:57:11.060Z,59632.99
2022-09-14T13:58:13.819Z,59614.93
2022-09-14T13:59:17.300Z,59601.88
2022-09-14T14:00:20.284Z,59610.91
2022-09-14T14:01:23.539Z,59590.84
2022-09-14T14:02:26.520Z,59576.79
2022-09-14T14:03:29.729Z,59591.84
2022-09-14T14:04:33.122Z,59576.79
2022-09-14T14:05:35.789Z,59562.73
2022-09-14T14:06:38.864Z,59517.57
2022-09-14T14:07:42.051Z,59574.78
2022-09-14T14:08:44.920Z,59520.58
2022-09-14T14:09:47.796Z,59528.61
2022-09-14T14:10:50.874Z,59519.57
2022-09-14T14:11:53.562Z,59555.71
2022-09-14T14:12:56.726Z,59540.65
2022-09-14T14:13:59.807Z,59522.59
2022-09-14T14:15:02.498Z,59505.52